Time;durP1;ratioP1;P1;durP2;ratioP2;P2;SDS_P1;SDS_P2;PMS_P1;PMS_P2;Temp;Humidity;BMP_temperature;BMP_pressure;BME280_temperature;BME280_humidity;BME280_pressure;Samples;Min_cycle;Max_cycle;Signal;HPM_P1;HPM_P2
2023/01/03 00:00:42;;;;;;;1.70;1.20;;;11.90;99.90;;;;;;10089104;28;20386;-59
2023/01/03 00:05:34;;;;;;;2.33;1.30;;;11.80;99.90;;;;;;10087780;28;20041;-59
2023/01/03 00:10:25;;;;;;;1.42;0.80;;;11.80;99.90;;;;;;10083202;28;20036;-60
2023/01/03 00:15:16;;;;;;;1.85;1.00;;;11.80;99.90;;;;;;10096682;28;20028;-59
2023/01/03 00:20:08;;;;;;;2.25;0.70;;;11.70;99.90;;;;;;10103474;28;20036;-60
2023/01/03 00:24:59;;;;;;;2.88;1.00;;;11.70;99.90;;;;;;10098897;28;20074;-60
2023/01/03 00:29:50;;;;;;;2.33;1.60;;;11.70;99.90;;;;;;10094363;28;20029;-59
2023/01/03 00:34:43;;;;;;;2.80;1.52;;;11.50;99.90;;;;;;10083638;28;20160;-59
2023/01/03 00:39:34;;;;;;;2.42;1.60;;;11.40;99.90;;;;;;10089066;28;20037;-60
2023/01/03 00:44:24;;;;;;;3.72;1.60;;;11.50;99.90;;;;;;10091453;28;20017;-59
2023/01/03 00:49:15;;;;;;;1.77;1.35;;;11.40;99.90;;;;;;10098397;28;20079;-59
2023/01/03 00:54:07;;;;;;;2.20;1.13;;;11.40;99.90;;;;;;10100905;28;20122;-58
2023/01/03 00:58:58;;;;;;;1.88;1.08;;;11.40;99.90;;;;;;10094014;28;20022;-59
2023/01/03 01:03:58;;;;;;;1.45;0.85;;;11.40;99.90;;;;;;10092251;28;20441;-59
2023/01/03 01:08:50;;;;;;;1.35;0.80;;;11.40;99.90;;;;;;10101263;28;20025;-59
2023/01/03 01:13:42;;;;;;;1.98;1.10;;;11.30;99.90;;;;;;10096677;28;20091;-59
2023/01/03 01:18:34;;;;;;;1.75;0.90;;;11.30;99.90;;;;;;10084597;28;20494;-59
2023/01/03 01:23:25;;;;;;;1.23;0.82;;;11.30;99.90;;;;;;10099655;28;20107;-59
2023/01/03 01:28:15;;;;;;;1.20;1.10;;;11.30;99.90;;;;;;10094856;28;20576;-58
2023/01/03 01:33:06;;;;;;;2.00;0.57;;;11.30;99.90;;;;;;10092770;28;20049;-59
2023/01/03 01:37:57;;;;;;;1.23;0.85;;;11.30;99.90;;;;;;10088084;28;20029;-60
2023/01/03 01:48:10;;;;;;;3.50;1.15;;;11.20;99.90;;;;;;10098343;28;20027;-59
2023/01/03 01:53:03;;;;;;;1.30;0.98;;;11.10;99.90;;;;;;10098283;28;20045;-60
2023/01/03 01:57:54;;;;;;;1.80;1.17;;;11.10;99.90;;;;;;10091243;28;20035;-59
2023/01/03 02:02:48;;;;;;;2.70;1.15;;;11.10;99.90;;;;;;10092699;28;20021;-59
2023/01/03 02:07:39;;;;;;;1.85;1.00;;;11.10;99.90;;;;;;10081960;28;20098;-59
2023/01/03 02:13:06;;;;;;;2.25;1.38;;;11.00;99.90;;;;;;10093317;28;20525;-59
2023/01/03 02:18:29;;;;;;;;;;;11.00;99.90;;;;;;10074681;28;20136;-59
2023/01/03 02:23:56;;;;;;;5.25;2.13;;;10.90;99.90;;;;;;10053934;28;20343;-60
2023/01/03 02:29:15;;;;;;;1.63;1.42;;;10.80;99.90;;;;;;10094912;28;20040;-59
2023/01/03 02:34:37;;;;;;;2.10;1.23;;;10.80;99.90;;;;;;10087077;28;20499;-60
2023/01/03 02:39:43;;;;;;;3.60;1.27;;;10.70;99.90;;;;;;10071056;28;20041;-59
2023/01/03 02:44:34;;;;;;;;;;;10.70;99.90;;;;;;10080605;28;20022;-60
2023/01/03 02:49:30;;;;;;;1.70;1.42;;;10.70;99.90;;;;;;10087994;28;20053;-59
2023/01/03 02:54:26;;;;;;;;;;;10.60;99.90;;;;;;10091960;28;20041;-59
2023/01/03 02:59:21;;;;;;;2.10;1.25;;;10.60;99.90;;;;;;10090327;28;19975;-59
2023/01/03 03:04:13;;;;;;;2.38;1.10;;;10.50;99.90;;;;;;10089049;28;20025;-58
2023/01/03 03:09:04;;;;;;;3.42;1.50;;;10.50;99.90;;;;;;10087513;28;20039;-57
2023/01/03 03:14:18;;;;;;;1.90;0.98;;;10.50;99.90;;;;;;10078571;28;20029;-58
2023/01/03 03:24:49;;;;;;;4.68;1.77;;;10.50;99.90;;;;;;10083844;28;20171;-59
2023/01/03 03:29:40;;;;;;;1.73;1.23;;;10.50;99.90;;;;;;10079905;28;20067;-58
2023/01/03 03:34:36;;;;;;;1.55;1.15;;;10.40;99.90;;;;;;10086202;28;20468;-58
2023/01/03 03:49:52;;;;;;;1.95;1.30;;;10.40;99.90;;;;;;10089930;28;20136;-59
2023/01/03 03:54:50;;;;;;;4.00;1.10;;;10.40;99.90;;;;;;10095509;28;20539;-61
2023/01/03 03:59:45;;;;;;;1.88;1.13;;;10.40;99.90;;;;;;10086732;28;20021;-59
2023/01/03 04:04:40;;;;;;;2.38;1.48;;;10.30;99.90;;;;;;10086210;28;20524;-59
2023/01/03 04:09:31;;;;;;;1.70;1.17;;;10.30;99.90;;;;;;10086916;28;20037;-60
2023/01/03 04:14:22;;;;;;;2.47;1.30;;;10.30;99.90;;;;;;10084780;28;20399;-59
2023/01/03 04:19:12;;;;;;;1.65;1.13;;;10.30;99.90;;;;;;10093138;28;20039;-59
2023/01/03 04:24:04;;;;;;;1.83;1.02;;;10.20;99.90;;;;;;10094963;28;20037;-59
2023/01/03 04:28:54;;;;;;;1.52;1.13;;;10.10;99.90;;;;;;10086502;28;20033;-58
2023/01/03 04:33:45;;;;;;;1.13;0.90;;;10.00;99.90;;;;;;10090072;28;20048;-57
2023/01/03 04:38:36;;;;;;;1.45;1.10;;;10.00;99.90;;;;;;10080032;28;20022;-58
2023/01/03 04:48:35;;;;;;;2.35;1.23;;;9.80;99.90;;;;;;10090480;28;20094;-61
2023/01/03 04:53:27;;;;;;;1.27;0.98;;;9.90;99.90;;;;;;10093165;28;20126;-58
2023/01/03 04:58:18;;;;;;;1.95;1.08;;;9.90;99.90;;;;;;10094751;28;20048;-59
2023/01/03 05:03:10;;;;;;;2.45;1.27;;;9.80;99.90;;;;;;10092638;28;20300;-59
2023/01/03 05:08:06;;;;;;;1.27;0.98;;;9.90;99.90;;;;;;10098866;28;20044;-60
2023/01/03 05:13:00;;;;;;;1.02;0.77;;;9.80;99.90;;;;;;10082576;28;20037;-59
2023/01/03 05:17:50;;;;;;;1.92;1.67;;;9.80;99.90;;;;;;10110228;28;20072;-58
2023/01/03 05:27:56;;;;;;;4.40;1.38;;;9.80;99.90;;;;;;10072364;28;20082;-58
2023/01/03 05:32:46;;;;;;;3.92;1.20;;;9.70;99.90;;;;;;10092589;28;20407;-58
2023/01/03 05:37:37;;;;;;;1.45;1.05;;;9.70;99.90;;;;;;10088344;28;20017;-60
2023/01/03 05:42:28;;;;;;;3.75;1.70;;;9.60;99.90;;;;;;10095321;28;20096;-60
2023/01/03 05:47:18;;;;;;;2.30;1.42;;;9.70;99.90;;;;;;10099728;28;20406;-61
2023/01/03 05:52:09;;;;;;;1.90;1.40;;;9.70;99.90;;;;;;10097663;28;20511;-60
2023/01/03 05:56:59;;;;;;;3.97;1.25;;;9.70;99.90;;;;;;10098750;28;20036;-60
2023/01/03 06:01:50;;;;;;;2.13;1.17;;;9.60;99.90;;;;;;10092142;28;20252;-61
2023/01/03 06:06:41;;;;;;;1.58;1.25;;;9.60;99.90;;;;;;10088533;28;20052;-60
2023/01/03 06:11:31;;;;;;;1.50;1.05;;;9.50;99.90;;;;;;10097023;28;20032;-58
2023/01/03 06:21:31;;;;;;;2.42;1.20;;;9.60;99.90;;;;;;10088109;28;20098;-59
2023/01/03 06:26:23;;;;;;;2.72;1.48;;;9.50;99.90;;;;;;10098583;28;20421;-62
2023/01/03 06:31:14;;;;;;;3.08;1.92;;;9.50;99.90;;;;;;10097377;28;20036;-61
2023/01/03 06:36:07;;;;;;;1.63;1.30;;;9.40;99.90;;;;;;10091631;28;20077;-62
2023/01/03 06:40:58;;;;;;;4.03;2.10;;;9.40;99.90;;;;;;10097350;28;20044;-64
2023/01/03 06:56:08;;;;;;;4.20;2.13;;;9.30;99.90;;;;;;10094036;28;20270;-60
2023/01/03 07:01:02;;;;;;;3.45;2.28;;;9.30;99.90;;;;;;10090183;28;20037;-62
2023/01/03 07:05:53;;;;;;;2.03;1.83;;;9.20;99.90;;;;;;10088746;28;20479;-59
2023/01/03 07:10:43;;;;;;;4.18;1.83;;;9.20;99.90;;;;;;10095875;28;20123;-60
2023/01/03 07:15:34;;;;;;;3.08;1.75;;;9.20;99.90;;;;;;10077958;28;20025;-60
2023/01/03 07:20:25;;;;;;;2.80;1.75;;;9.20;99.90;;;;;;10087912;28;20048;-63
2023/01/03 07:25:15;;;;;;;3.55;1.65;;;9.20;99.90;;;;;;10093371;28;20120;-60
2023/01/03 07:30:07;;;;;;;3.70;1.95;;;9.20;99.90;;;;;;10087846;28;20372;-59
2023/01/03 07:34:57;;;;;;;2.85;1.65;;;9.20;99.90;;;;;;10087457;28;20474;-61
2023/01/03 07:39:48;;;;;;;5.07;2.20;;;9.10;99.90;;;;;;10090242;28;20029;-60
2023/01/03 07:44:38;;;;;;;2.65;1.90;;;9.20;99.90;;;;;;10089595;28;20113;-58
2023/01/03 07:49:29;;;;;;;3.50;1.73;;;9.10;99.90;;;;;;10091884;28;20056;-59
2023/01/03 07:54:20;;;;;;;2.67;1.75;;;9.10;99.90;;;;;;10089595;28;20084;-59
2023/01/03 07:59:10;;;;;;;2.17;1.90;;;9.20;99.90;;;;;;10088210;28;20483;-61
2023/01/03 08:04:01;;;;;;;5.30;2.22;;;9.20;99.90;;;;;;10090796;28;20395;-61
2023/01/03 08:14:01;;;;;;;3.83;1.98;;;9.30;99.90;;;;;;10083560;28;20120;-55
2023/01/03 08:18:52;;;;;;;2.53;1.60;;;9.30;99.90;;;;;;10082226;28;20451;-59
2023/01/03 08:23:43;;;;;;;1.80;1.17;;;9.30;99.90;;;;;;10094478;28;20083;-59
2023/01/03 08:28:34;;;;;;;3.42;1.60;;;9.30;99.90;;;;;;10088092;28;20025;-60
2023/01/03 08:33:28;;;;;;;3.30;1.35;;;9.30;99.90;;;;;;10096479;28;20029;-61
2023/01/03 08:38:23;;;;;;;3.22;2.20;;;9.30;99.90;;;;;;10090568;28;20049;-59
2023/01/03 08:43:15;;;;;;;3.30;1.73;;;9.40;99.90;;;;;;10089292;28;20112;-60
2023/01/03 08:48:08;;;;;;;2.75;2.00;;;9.40;99.90;;;;;;10096759;28;20044;-59
2023/01/03 08:52:59;;;;;;;6.38;2.13;;;9.40;99.90;;;;;;10100981;28;20041;-61
2023/01/03 08:57:50;;;;;;;2.75;1.98;;;9.40;99.90;;;;;;10101773;28;20478;-58
2023/01/03 09:02:40;;;;;;;5.60;2.28;;;9.40;99.90;;;;;;10087784;28;20039;-59
2023/01/03 09:07:31;;;;;;;2.85;2.28;;;9.50;99.90;;;;;;10084865;28;20026;-60
2023/01/03 09:12:22;;;;;;;5.10;2.55;;;9.40;99.90;;;;;;10088760;28;20471;-61
2023/01/03 09:17:12;;;;;;;4.80;3.08;;;9.30;99.90;;;;;;10084724;28;20025;-62
2023/01/03 09:22:03;;;;;;;5.25;3.50;;;9.40;99.90;;;;;;10086825;28;20037;-61
2023/01/03 09:26:53;;;;;;;3.50;2.35;;;9.20;99.90;;;;;;10094258;28;20388;-61
2023/01/03 09:31:44;;;;;;;5.75;2.83;;;9.10;99.90;;;;;;10096772;28;20492;-60
2023/01/03 09:36:37;;;;;;;4.25;3.13;;;9.00;99.90;;;;;;10089468;28;20060;-61
2023/01/03 09:41:27;;;;;;;5.10;3.22;;;9.00;99.90;;;;;;10086902;28;20037;-63
2023/01/03 09:46:21;;;;;;;5.15;3.22;;;9.20;99.90;;;;;;10096882;28;20398;-61
2023/01/03 10:07:39;;;;;;;7.70;4.10;;;9.50;99.90;;;;;;10092736;28;20067;-63
2023/01/03 10:12:51;;;;;;;6.65;4.35;;;9.60;99.90;;;;;;10093846;28;20029;-61
2023/01/03 10:18:05;;;;;;;7.10;4.45;;;9.80;99.90;;;;;;10089886;28;20577;-60
2023/01/03 10:22:56;;;;;;;9.65;4.03;;;9.90;99.90;;;;;;10097916;28;20040;-61
2023/01/03 10:27:55;;;;;;;6.45;3.30;;;9.90;99.90;;;;;;10095330;28;20029;-60
2023/01/03 10:33:01;;;;;;;6.68;3.40;;;10.00;99.90;;;;;;10089510;28;20125;-62
2023/01/03 10:37:53;;;;;;;6.37;3.47;;;10.10;99.90;;;;;;10091656;28;20028;-60
2023/01/03 10:42:44;;;;;;;8.32;4.10;;;10.10;99.90;;;;;;10088333;28;20039;-59
2023/01/03 10:47:35;;;;;;;6.25;3.75;;;10.20;99.90;;;;;;10086983;28;20371;-61
2023/01/03 10:52:38;;;;;;;7.38;3.95;;;10.30;99.90;;;;;;10084478;28;20080;-59
2023/01/03 10:57:45;;;;;;;8.13;4.28;;;10.40;99.90;;;;;;10085941;28;20522;-58
2023/01/03 11:02:43;;;;;;;4.32;3.10;;;10.40;99.90;;;;;;10094856;28;20047;-60
2023/01/03 11:07:42;;;;;;;5.78;3.45;;;10.50;99.90;;;;;;10103465;28;20475;-60
2023/01/03 11:12:40;;;;;;;6.68;3.15;;;10.60;99.90;;;;;;10094668;28;20451;-62
2023/01/03 11:17:31;;;;;;;5.47;3.20;;;10.80;99.90;;;;;;10093705;28;20025;-63
2023/01/03 11:22:51;;;;;;;4.78;2.92;;;10.80;99.90;;;;;;10093315;28;20016;-61
2023/01/03 11:28:09;;;;;;;3.13;2.20;;;10.80;99.90;;;;;;10091604;28;20047;-67
2023/01/03 11:33:09;;;;;;;4.70;2.40;;;10.90;99.90;;;;;;10094532;28;20052;-64
2023/01/03 11:38:24;;;;;;;3.20;2.03;;;11.10;99.90;;;;;;10096451;28;20032;-62
2023/01/03 11:43:21;;;;;;;2.17;1.57;;;11.10;99.90;;;;;;10094195;28;20035;-62
2023/01/03 11:48:47;;;;;;;3.33;1.55;;;11.10;99.90;;;;;;10092592;28;20132;-60
2023/01/03 11:54:07;;;;;;;3.75;1.50;;;11.10;99.90;;;;;;10093540;28;20459;-62
2023/01/03 11:59:31;;;;;;;2.92;1.65;;;11.20;99.90;;;;;;10094375;28;20025;-64
2023/01/03 12:04:27;;;;;;;5.32;1.80;;;11.30;99.90;;;;;;10072237;28;20119;-61
2023/01/03 12:09:40;;;;;;;5.00;2.13;;;11.40;99.90;;;;;;10098815;28;20112;-65
2023/01/03 12:14:51;;;;;;;3.03;1.75;;;11.40;99.90;;;;;;10094650;28;20240;-64
2023/01/03 12:20:01;;;;;;;2.20;1.38;;;11.50;99.90;;;;;;10101232;28;20498;-60
2023/01/03 12:24:58;;;;;;;3.33;1.85;;;11.60;99.90;;;;;;10103167;28;20036;-63
2023/01/03 12:29:55;;;;;;;3.50;1.90;;;11.60;99.90;;;;;;10100577;28;20040;-63
2023/01/03 12:34:53;;;;;;;3.15;1.63;;;11.60;99.90;;;;;;10092615;28;20879;-58
2023/01/03 12:39:48;;;;;;;2.55;1.50;;;11.60;99.90;;;;;;10099406;28;20017;-61
2023/01/03 12:44:44;;;;;;;2.40;1.38;;;11.70;99.90;;;;;;10094741;28;20082;-60
2023/01/03 12:49:55;;;;;;;3.97;1.50;;;11.70;99.90;;;;;;10095604;28;20087;-59
2023/01/03 12:55:03;;;;;;;1.77;1.17;;;11.70;99.90;;;;;;10093802;28;20040;-62
2023/01/03 13:00:16;;;;;;;3.97;1.55;;;11.70;99.90;;;;;;10100825;28;20029;-62
2023/01/03 13:05:46;;;;;;;2.85;1.45;;;11.70;99.90;;;;;;10099191;28;20033;-63
2023/01/03 13:10:41;;;;;;;2.50;1.40;;;11.70;99.90;;;;;;10048116;28;20080;-61
2023/01/03 13:15:33;;;;;;;1.97;1.50;;;11.70;99.90;;;;;;10099275;28;20033;-60
2023/01/03 13:20:30;;;;;;;2.03;1.85;;;11.80;99.90;;;;;;10097401;28;20364;-61
2023/01/03 13:25:35;;;;;;;3.22;1.55;;;11.90;99.90;;;;;;10099213;28;20021;-61
2023/01/03 13:30:32;;;;;;;3.67;1.55;;;11.80;99.90;;;;;;10099215;28;20025;-60
2023/01/03 13:35:52;;;;;;;5.00;1.90;;;11.80;99.90;;;;;;10098686;28;20086;-63
2023/01/03 13:40:52;;;;;;;2.13;1.50;;;11.90;99.90;;;;;;10097298;28;20025;-61
2023/01/03 13:45:42;;;;;;;1.83;1.33;;;11.80;99.90;;;;;;10097040;28;20052;-61
2023/01/03 13:50:35;;;;;;;4.15;2.40;;;11.80;99.90;;;;;;10097338;28;20052;-64
2023/01/03 13:55:55;;;;;;;2.22;1.50;;;11.80;99.90;;;;;;10097410;28;20025;-61
2023/01/03 14:00:46;;;;;;;3.78;2.08;;;11.80;99.90;;;;;;10096190;28;20407;-62
2023/01/03 14:05:55;;;;;;;4.35;2.20;;;11.80;99.90;;;;;;10097135;28;20025;-63
2023/01/03 14:11:04;;;;;;;4.22;2.13;;;11.80;99.90;;;;;;10096461;28;20569;-60
2023/01/03 14:16:20;;;;;;;4.07;1.92;;;11.80;99.90;;;;;;10096554;28;20049;-60
2023/01/03 14:21:20;;;;;;;4.80;2.00;;;11.70;99.90;;;;;;10126878;23;20058;-64
2023/01/03 14:26:15;;;;;;;3.92;1.70;;;11.70;99.90;;;;;;10137632;28;20533;-59
2023/01/03 14:31:17;;;;;;;3.63;1.23;;;11.70;99.90;;;;;;10135646;28;20263;-61
2023/01/03 14:36:14;;;;;;;4.28;1.60;;;11.60;99.90;;;;;;10135801;28;20792;-60
2023/01/03 14:41:05;;;;;;;2.17;1.45;;;11.60;99.90;;;;;;10137088;28;20057;-65
2023/01/03 14:46:03;;;;;;;2.50;1.50;;;11.60;99.90;;;;;;10137660;28;20044;-59
2023/01/03 14:50:54;;;;;;;2.55;1.38;;;11.50;99.90;;;;;;10136919;28;20116;-58
2023/01/03 14:55:53;;;;;;;1.92;1.45;;;11.50;99.90;;;;;;10137569;28;20036;-60
2023/01/03 15:00:44;;;;;;;2.20;1.20;;;11.40;99.90;;;;;;10136059;28;20518;-63
2023/01/03 15:05:40;;;;;;;2.92;1.52;;;11.50;99.90;;;;;;10132460;28;20017;-59
2023/01/03 15:10:47;;;;;;;2.20;1.50;;;11.40;99.90;;;;;;10131763;28;20103;-59
2023/01/03 15:15:38;;;;;;;2.10;1.25;;;11.40;99.90;;;;;;10135438;28;20443;-63
2023/01/03 15:20:40;;;;;;;3.28;1.92;;;11.40;99.90;;;;;;10136150;28;20052;-68
2023/01/03 15:25:36;;;;;;;2.78;1.70;;;11.30;99.90;;;;;;10135725;28;20063;-58
2023/01/03 15:30:27;;;;;;;2.95;1.58;;;11.30;99.90;;;;;;10133773;28;20016;-60
2023/01/03 15:35:28;;;;;;;2.85;2.00;;;11.30;99.90;;;;;;10129291;28;20052;-61
2023/01/03 15:40:19;;;;;;;3.92;2.30;;;11.30;99.90;;;;;;10133997;28;20028;-59
2023/01/03 15:45:22;;;;;;;4.55;1.98;;;11.30;99.90;;;;;;10136007;28;20055;-61
2023/01/03 15:50:17;;;;;;;4.35;1.60;;;11.30;99.90;;;;;;10134288;28;20088;-58
2023/01/03 15:55:11;;;;;;;2.40;1.48;;;11.30;99.90;;;;;;10132701;28;20522;-60
2023/01/03 16:00:04;;;;;;;5.07;2.00;;;11.20;99.90;;;;;;10133438;28;20521;-60
2023/01/03 16:04:55;;;;;;;3.25;1.77;;;11.20;99.90;;;;;;10130813;28;20020;-61
2023/01/03 16:09:46;;;;;;;2.70;2.05;;;11.10;99.90;;;;;;10134340;28;20179;-61
2023/01/03 16:14:39;;;;;;;2.60;1.60;;;11.10;99.90;;;;;;10135241;28;20125;-61
2023/01/03 16:19:30;;;;;;;2.80;1.98;;;11.10;99.90;;;;;;10134304;28;20070;-59
2023/01/03 16:24:21;;;;;;;5.55;2.10;;;11.10;99.90;;;;;;10131576;28;20036;-56
2023/01/03 16:29:13;;;;;;;3.55;2.53;;;11.10;99.90;;;;;;10135294;28;20066;-57
2023/01/03 16:34:06;;;;;;;4.18;2.15;;;11.10;99.90;;;;;;10135365;28;20049;-59
2023/01/03 16:38:57;;;;;;;5.65;2.67;;;11.10;99.90;;;;;;10133064;28;20724;-58
2023/01/03 16:43:52;;;;;;;4.20;2.33;;;11.00;99.90;;;;;;10132380;28;20662;-57
2023/01/03 16:48:46;;;;;;;4.30;2.60;;;11.00;99.90;;;;;;10132673;28;20044;-58
2023/01/03 16:53:39;;;;;;;4.80;2.55;;;11.00;99.90;;;;;;10135659;28;20038;-61
2023/01/03 16:58:30;;;;;;;5.43;3.03;;;11.00;99.90;;;;;;10140665;28;20025;-64
2023/01/03 17:03:21;;;;;;;4.57;2.95;;;11.00;99.90;;;;;;10141776;28;20279;-60
2023/01/03 17:08:14;;;;;;;6.28;2.92;;;11.00;99.90;;;;;;10140349;28;20028;-67
2023/01/03 17:13:05;;;;;;;5.53;2.88;;;10.90;99.90;;;;;;10137733;28;20424;-58
2023/01/03 17:17:59;;;;;;;5.25;3.30;;;10.80;99.90;;;;;;10139520;28;20527;-73
2023/01/03 17:22:54;;;;;;;6.00;3.28;;;10.90;99.90;;;;;;10131444;28;20041;-64
2023/01/03 17:27:50;;;;;;;7.03;3.65;;;10.90;99.90;;;;;;10140156;28;20040;-61
2023/01/03 17:32:40;;;;;;;4.90;3.80;;;10.90;99.90;;;;;;10140824;28;20447;-64
2023/01/03 17:37:31;;;;;;;8.90;4.00;;;10.70;99.90;;;;;;10138251;28;20035;-61
2023/01/03 17:42:23;;;;;;;8.90;4.15;;;10.70;99.90;;;;;;10136640;28;20024;-62
2023/01/03 17:52:29;;;;;;;10.75;5.15;;;10.60;99.90;;;;;;10137984;28;20501;-63
2023/01/03 17:57:20;;;;;;;11.38;5.53;;;10.60;99.90;;;;;;10136413;28;20036;-64
2023/01/03 18:02:19;;;;;;;10.68;5.68;;;10.50;99.90;;;;;;10137537;28;20023;-68
2023/01/03 18:07:18;;;;;;;7.50;4.60;;;10.40;99.90;;;;;;10133577;28;20020;-63
2023/01/03 18:12:14;;;;;;;8.93;4.95;;;10.30;99.90;;;;;;10131136;28;20255;-64
2023/01/03 18:17:16;;;;;;;7.10;4.40;;;10.30;99.90;;;;;;10140996;28;20021;-63
2023/01/03 18:22:10;;;;;;;10.98;5.20;;;10.20;99.90;;;;;;10138554;28;20105;-65
2023/01/03 18:27:01;;;;;;;5.80;3.58;;;10.10;99.90;;;;;;10136306;28;20036;-64
2023/01/03 18:31:53;;;;;;;7.78;4.63;;;10.00;99.90;;;;;;10138120;28;20530;-63
2023/01/03 18:36:48;;;;;;;4.45;2.60;;;10.00;99.90;;;;;;10138354;28;20020;-63
2023/01/03 18:41:39;;;;;;;4.15;2.92;;;9.80;99.90;;;;;;10135363;28;20031;-62
2023/01/03 18:46:30;;;;;;;5.60;2.60;;;9.80;99.90;;;;;;10135088;28;20016;-64
2023/01/03 18:51:26;;;;;;;4.80;3.10;;;9.80;99.90;;;;;;10135758;28;20047;-64
2023/01/03 18:56:25;;;;;;;5.75;2.72;;;9.70;99.90;;;;;;10140537;28;20025;-63
2023/01/03 19:01:16;;;;;;;5.13;2.80;;;9.70;99.90;;;;;;10134370;28;20621;-62
2023/01/03 19:06:17;;;;;;;6.85;3.30;;;9.70;99.90;;;;;;10134995;28;20036;-61
2023/01/03 19:11:14;;;;;;;6.70;3.80;;;9.70;99.90;;;;;;10134210;28;20577;-65
2023/01/03 19:16:06;;;;;;;9.38;4.82;;;9.70;99.90;;;;;;10127124;28;20049;-61
2023/01/03 19:20:57;;;;;;;6.45;4.10;;;9.60;99.90;;;;;;10133280;28;20040;-64
2023/01/03 19:25:48;;;;;;;4.95;3.78;;;9.60;99.90;;;;;;10135550;28;20415;-61
2023/01/03 19:30:45;;;;;;;5.63;3.78;;;9.60;99.90;;;;;;10134748;28;20392;-61
2023/01/03 19:35:35;;;;;;;8.43;3.50;;;9.60;99.90;;;;;;10135965;28;20017;-61
2023/01/03 19:40:30;;;;;;;6.35;3.90;;;9.70;99.90;;;;;;10134865;28;20024;-62
2023/01/03 19:45:27;;;;;;;8.55;3.58;;;9.70;99.90;;;;;;10129136;28;20112;-64
2023/01/03 19:50:23;;;;;;;5.38;3.65;;;9.60;99.90;;;;;;10133494;28;20036;-63
2023/01/03 19:55:14;;;;;;;;;;;9.60;99.90;;;;;;10134013;28;20153;-61
2023/01/03 20:00:06;;;;;;;5.72;3.15;;;9.50;99.90;;;;;;10134974;28;19908;-64
2023/01/03 20:04:57;;;;;;;5.75;3.92;;;9.50;99.90;;;;;;10134547;28;20033;-64
2023/01/03 20:09:47;;;;;;;7.57;4.00;;;9.40;99.90;;;;;;10135003;28;20362;-61
2023/01/03 20:14:41;;;;;;;9.75;5.55;;;9.40;99.90;;;;;;10130897;28;20135;-64
2023/01/03 20:19:32;;;;;;;6.05;4.53;;;9.30;99.90;;;;;;10135945;28;20132;-64
2023/01/03 20:24:28;;;;;;;8.48;5.90;;;9.30;99.90;;;;;;10135260;28;20670;-63
2023/01/03 20:29:18;;;;;;;11.73;6.38;;;9.30;99.90;;;;;;10144506;28;20031;-64
2023/01/03 20:34:10;;;;;;;10.55;6.22;;;9.30;99.90;;;;;;10142568;28;20054;-64
2023/01/03 20:39:01;;;;;;;13.10;6.63;;;9.20;99.90;;;;;;10141969;28;20562;-62
2023/01/03 20:43:51;;;;;;;11.77;6.18;;;9.10;99.90;;;;;;10135125;28;20257;-63
2023/01/03 20:48:43;;;;;;;8.63;5.20;;;9.10;99.90;;;;;;10138796;28;20028;-62
2023/01/03 20:53:33;;;;;;;14.10;6.18;;;9.10;99.90;;;;;;10138577;28;20047;-60
2023/01/03 20:58:24;;;;;;;14.85;7.45;;;8.90;99.90;;;;;;10139588;28;20422;-63
2023/01/03 21:03:15;;;;;;;11.70;6.63;;;8.90;99.90;;;;;;10138165;28;20044;-62
2023/01/03 21:13:22;;;;;;;9.55;5.68;;;8.80;99.90;;;;;;10146498;28;20043;-62
2023/01/03 21:18:13;;;;;;;10.18;5.38;;;8.70;99.90;;;;;;10142640;28;20043;-64
2023/01/03 21:23:03;;;;;;;8.07;4.88;;;8.60;99.90;;;;;;10140863;28;20075;-69
2023/01/03 21:27:54;;;;;;;7.78;4.90;;;8.50;99.90;;;;;;10140444;28;20024;-65
2023/01/03 21:32:46;;;;;;;7.45;4.57;;;8.50;99.90;;;;;;10139840;28;20130;-62
2023/01/03 21:37:36;;;;;;;5.07;3.97;;;8.40;99.90;;;;;;10138972;28;20391;-62
2023/01/03 21:47:36;;;;;;;6.68;4.05;;;8.20;99.90;;;;;;10139588;28;20093;-63
2023/01/03 21:52:27;;;;;;;5.85;3.60;;;8.10;99.90;;;;;;10139455;28;20121;-62
2023/01/03 21:57:17;;;;;;;8.82;4.13;;;8.10;99.90;;;;;;10138937;28;20060;-64
2023/01/03 22:07:29;;;;;;;9.60;4.47;;;8.10;99.90;;;;;;10131468;28;20055;-65
2023/01/03 22:12:19;;;;;;;12.20;6.63;;;7.90;99.90;;;;;;10135243;28;20048;-64
2023/01/03 22:17:10;;;;;;;10.82;5.20;;;7.90;99.90;;;;;;10140936;28;20071;-65
2023/01/03 22:22:01;;;;;;;7.80;5.25;;;7.90;99.90;;;;;;10138892;28;20052;-63
2023/01/03 22:26:51;;;;;;;7.05;4.28;;;7.90;99.90;;;;;;10129063;28;20020;-62
2023/01/03 22:31:45;;;;;;;6.35;4.28;;;7.80;99.90;;;;;;10138019;28;20456;-62
2023/01/03 22:36:35;;;;;;;11.45;4.90;;;7.80;99.90;;;;;;10137900;28;20028;-64
2023/01/03 22:41:26;;;;;;;5.85;4.43;;;7.60;99.90;;;;;;10137461;28;20032;-64
2023/01/03 22:46:16;;;;;;;8.05;5.22;;;7.60;99.90;;;;;;10137135;28;20532;-65
2023/01/03 22:51:11;;;;;;;7.78;4.45;;;7.60;99.90;;;;;;10137134;28;20387;-65
2023/01/03 22:56:07;;;;;;;8.45;4.45;;;7.60;99.90;;;;;;10137175;28;20074;-64
2023/01/03 23:01:05;;;;;;;9.68;4.97;;;7.50;99.90;;;;;;10136300;28;20555;-64
2023/01/03 23:05:57;;;;;;;8.70;4.75;;;7.60;99.90;;;;;;10135065;28;20040;-64
2023/01/03 23:10:47;;;;;;;7.30;4.43;;;7.60;99.90;;;;;;10136538;28;20031;-63
2023/01/03 23:16:00;;;;;;;9.75;4.93;;;7.50;99.90;;;;;;10138977;28;20093;-64
2023/01/03 23:20:51;;;;;;;8.05;4.38;;;7.50;99.90;;;;;;10135110;28;20071;-64
2023/01/03 23:25:41;;;;;;;8.18;5.07;;;7.50;99.90;;;;;;10136319;28;20525;-65
2023/01/03 23:30:32;;;;;;;6.30;3.85;;;7.50;99.90;;;;;;10136176;28;20013;-64
2023/01/03 23:35:23;;;;;;;8.57;5.20;;;7.50;99.90;;;;;;10135790;28;20441;-64
2023/01/03 23:40:14;;;;;;;7.30;3.65;;;7.50;99.90;;;;;;10136560;28;20039;-63
2023/01/03 23:45:06;;;;;;;8.02;5.90;;;7.40;99.90;;;;;;10135928;28;20023;-63
2023/01/03 23:49:56;;;;;;;8.55;4.43;;;7.40;99.90;;;;;;10135515;28;20494;-64
2023/01/03 23:54:47;;;;;;;5.93;3.97;;;7.40;99.90;;;;;;10135466;28;20124;-63
2023/01/03 23:59:38;;;;;;;12.55;4.93;;;7.50;99.90;;;;;;10135654;28;20549;-64
